createdAt,value
2023-06-17T00:01:24.909Z,21.44
2023-06-17T00:03:53.042Z,21.34
2023-06-17T00:06:20.666Z,21.42
2023-06-17T00:08:48.215Z,21.32
2023-06-17T00:11:15.712Z,21.09
2023-06-17T00:13:43.291Z,21.07
2023-06-17T00:16:13.885Z,20.95
2023-06-17T00:18:42.450Z,20.82
2023-06-17T00:21:10.409Z,20.83
2023-06-17T00:23:38.045Z,20.99
2023-06-17T00:26:05.578Z,21.08
2023-06-17T00:28:33.401Z,20.91
2023-06-17T00:31:00.987Z,20.84
2023-06-17T00:33:28.511Z,20.93
2023-06-17T00:35:56.504Z,21.16
2023-06-17T00:38:24.038Z,20.98
2023-06-17T00:40:51.544Z,20.95
2023-06-17T00:43:19.180Z,20.81
2023-06-17T00:45:47.363Z,20.83
2023-06-17T00:48:18.580Z,20.83
2023-06-17T00:50:47.473Z,21.04
2023-06-17T00:53:15.469Z,21.02
2023-06-17T00:55:43.625Z,21.17
2023-06-17T00:58:11.389Z,21.28
2023-06-17T01:00:38.902Z,21.40
2023-06-17T01:03:08.752Z,21.50
2023-06-17T01:05:36.439Z,21.31
2023-06-17T01:08:15.528Z,21.02
2023-06-17T01:11:06.032Z,20.86
2023-06-17T01:13:35.860Z,20.65
2023-06-17T01:16:06.056Z,20.53
2023-06-17T01:18:34.490Z,20.56
2023-06-17T01:21:04.813Z,20.59
2023-06-17T01:23:39.075Z,20.53
2023-06-17T01:26:08.495Z,20.50
2023-06-17T01:28:41.831Z,20.57
2023-06-17T01:31:13.848Z,20.58
2023-06-17T01:33:47.220Z,20.57
2023-06-17T01:36:23.070Z,20.57
2023-06-17T01:39:06.334Z,20.59
2023-06-17T01:41:41.519Z,20.59
2023-06-17T01:44:10.147Z,20.59
2023-06-17T01:46:39.418Z,20.52
2023-06-17T01:49:07.921Z,20.48
2023-06-17T01:51:36.293Z,20.38
2023-06-17T01:54:03.960Z,20.37
2023-06-17T01:56:32.183Z,20.30
2023-06-17T01:58:59.784Z,20.38
2023-06-17T02:01:27.964Z,20.35
2023-06-17T02:03:55.537Z,20.37
2023-06-17T02:06:23.682Z,20.38
2023-06-17T02:08:51.400Z,20.31
2023-06-17T02:11:18.994Z,20.25
2023-06-17T02:13:46.999Z,20.23
2023-06-17T02:16:14.620Z,20.35
2023-06-17T02:18:43.646Z,20.48
2023-06-17T02:21:11.274Z,20.58
2023-06-17T02:23:38.803Z,20.43
2023-06-17T02:26:06.334Z,20.37
2023-06-17T02:28:33.890Z,20.38
2023-06-17T02:31:01.414Z,20.30
2023-06-17T02:33:30.986Z,20.19
2023-06-17T02:35:59.532Z,20.11
2023-06-17T02:38:27.681Z,20.09
2023-06-17T02:40:56.528Z,20.20
2023-06-17T02:43:24.003Z,20.21
2023-06-17T02:45:51.703Z,20.14
2023-06-17T02:48:19.212Z,20.11
2023-06-17T02:50:46.865Z,20.11
2023-06-17T02:53:16.264Z,20.18
2023-06-17T02:55:46.639Z,20.29
2023-06-17T02:58:20.290Z,20.33
2023-06-17T03:00:51.998Z,20.34
2023-06-17T03:03:19.933Z,20.30
2023-06-17T03:05:49.042Z,20.41
2023-06-17T03:08:19.264Z,20.31
2023-06-17T03:10:47.410Z,20.27
2023-06-17T03:13:15.679Z,20.25
2023-06-17T03:15:47.095Z,20.17
2023-06-17T03:18:20.304Z,20.11
2023-06-17T03:20:48.171Z,20.01
2023-06-17T03:23:16.818Z,20.02
2023-06-17T03:25:45.903Z,20.09
2023-06-17T03:28:13.531Z,20.01
2023-06-17T03:30:41.709Z,20.07
2023-06-17T03:33:11.052Z,20.19
2023-06-17T03:35:38.586Z,20.00
2023-06-17T03:38:06.475Z,19.97
2023-06-17T03:40:34.004Z,20.13
2023-06-17T03:43:02.637Z,20.08
2023-06-17T03:45:31.944Z,20.07
2023-06-17T03:48:01.490Z,19.96
2023-06-17T03:50:30.030Z,19.94
2023-06-17T03:52:58.519Z,19.93
2023-06-17T03:55:26.450Z,19.83
2023-06-17T03:57:56.247Z,19.74
2023-06-17T04:00:24.152Z,19.86
2023-06-17T04:02:52.286Z,19.97
2023-06-17T04:05:32.628Z,20.09
2023-06-17T04:08:03.730Z,20.18
2023-06-17T04:10:31.523Z,20.20
2023-06-17T04:13:00.429Z,20.32
2023-06-17T04:15:28.072Z,20.34
2023-06-17T04:17:58.132Z,20.34
2023-06-17T04:20:27.408Z,20.47
2023-06-17T04:22:55.009Z,20.61
2023-06-17T04:25:24.118Z,20.49
2023-06-17T04:27:55.054Z,20.64
2023-06-17T04:30:26.246Z,20.65
2023-06-17T04:32:59.578Z,20.59
2023-06-17T04:35:28.710Z,20.61
2023-06-17T04:37:57.821Z,20.67
2023-06-17T04:40:26.461Z,20.71
2023-06-17T04:42:54.202Z,20.65
2023-06-17T04:45:23.739Z,20.70
2023-06-17T04:47:57.076Z,20.77
2023-06-17T04:50:25.122Z,20.86
2023-06-17T04:52:53.081Z,20.88
2023-06-17T04:55:24.975Z,20.91
2023-06-17T04:57:52.546Z,20.93
2023-06-17T05:00:33.481Z,20.91
2023-06-17T05:03:01.542Z,21.00
2023-06-17T05:05:30.128Z,20.94
2023-06-17T05:07:58.065Z,20.97
2023-06-17T05:10:25.597Z,21.03
2023-06-17T05:12:53.268Z,20.93
2023-06-17T05:15:21.269Z,20.83
2023-06-17T05:17:49.411Z,20.63
2023-06-17T05:20:17.238Z,20.59
2023-06-17T05:22:45.190Z,20.81
2023-06-17T05:25:12.784Z,20.74
2023-06-17T05:27:41.166Z,20.51
2023-06-17T05:30:10.566Z,20.70
2023-06-17T05:32:40.164Z,20.55
2023-06-17T05:35:08.442Z,20.72
2023-06-17T05:37:36.052Z,20.51
2023-06-17T05:40:05.615Z,20.47
2023-06-17T05:42:33.947Z,20.54
2023-06-17T05:45:01.547Z,20.71
2023-06-17T05:47:31.167Z,20.86
2023-06-17T05:49:59.176Z,20.85
2023-06-17T05:52:27.553Z,20.78
2023-06-17T05:54:55.082Z,20.90
2023-06-17T05:57:22.702Z,21.03
2023-06-17T05:59:50.720Z,21.24
2023-06-17T06:02:19.206Z,21.08
2023-06-17T06:04:48.416Z,20.87
2023-06-17T06:07:15.970Z,20.77
2023-06-17T06:09:43.615Z,20.97
2023-06-17T06:12:12.124Z,21.45
2023-06-17T06:14:40.622Z,21.27
2023-06-17T06:17:08.460Z,21.26
2023-06-17T06:19:36.226Z,21.17
2023-06-17T06:22:04.189Z,21.17
2023-06-17T06:24:31.819Z,21.40
2023-06-17T06:27:00.910Z,21.44
2023-06-17T06:29:28.438Z,21.60
2023-06-17T06:31:56.019Z,21.60
2023-06-17T06:34:23.720Z,21.46
2023-06-17T06:36:51.844Z,21.52
2023-06-17T06:39:20.153Z,21.52
2023-06-17T06:41:48.070Z,21.77
2023-06-17T06:44:34.274Z,21.87
2023-06-17T06:47:02.114Z,21.84
2023-06-17T06:49:31.414Z,21.57
2023-06-17T06:51:59.234Z,21.59
2023-06-17T06:54:26.847Z,21.56
2023-06-17T06:56:54.436Z,21.55
2023-06-17T06:59:22.041Z,21.55
2023-06-17T07:01:52.525Z,21.47
2023-06-17T07:04:22.562Z,21.47
2023-06-17T07:06:55.141Z,21.41
2023-06-17T07:09:28.188Z,21.42
2023-06-17T07:11:55.798Z,21.32
2023-06-17T07:14:23.786Z,21.45
2023-06-17T07:16:52.175Z,21.39
2023-06-17T07:19:20.004Z,21.53
2023-06-17T07:21:49.873Z,21.68
2023-06-17T07:24:18.344Z,21.77
2023-06-17T07:26:46.429Z,21.57
2023-06-17T07:29:14.108Z,21.67
2023-06-17T07:31:41.816Z,21.84
2023-06-17T07:34:10.030Z,21.69
2023-06-17T07:36:37.593Z,21.66
2023-06-17T07:39:06.662Z,21.51
2023-06-17T07:41:34.171Z,21.38
2023-06-17T07:44:02.215Z,21.22
2023-06-17T07:46:33.322Z,21.23
2023-06-17T07:49:01.031Z,21.31
2023-06-17T07:51:28.563Z,21.47
2023-06-17T07:53:56.127Z,21.34
2023-06-17T07:56:26.424Z,21.47
2023-06-17T07:58:53.948Z,21.51
2023-06-17T08:01:21.988Z,21.35
2023-06-17T08:03:49.795Z,21.25
2023-06-17T08:06:17.523Z,21.24
2023-06-17T08:08:45.060Z,21.39
2023-06-17T08:11:13.131Z,21.51
2023-06-17T08:13:40.702Z,21.54
2023-06-17T08:16:08.408Z,21.50
2023-06-17T08:18:35.935Z,21.50
2023-06-17T08:21:03.632Z,21.57
2023-06-17T08:23:32.262Z,21.82
2023-06-17T08:26:00.952Z,21.72
2023-06-17T08:28:28.752Z,21.77
2023-06-17T08:30:58.318Z,21.78
2023-06-17T08:33:26.600Z,21.99
2023-06-17T08:35:54.536Z,21.80
2023-06-17T08:38:22.359Z,21.83
2023-06-17T08:40:50.102Z,21.75
2023-06-17T08:43:21.557Z,21.87
2023-06-17T08:45:53.278Z,21.85
2023-06-17T08:48:21.928Z,21.86
2023-06-17T08:50:52.197Z,21.91
2023-06-17T08:53:21.051Z,22.36
2023-06-17T08:55:49.284Z,22.45
2023-06-17T08:58:17.032Z,22.41
2023-06-17T09:00:44.706Z,22.66
2023-06-17T09:03:13.013Z,22.71
2023-06-17T09:05:40.711Z,22.99
2023-06-17T09:08:08.477Z,22.92
2023-06-17T09:10:45.900Z,23.06
2023-06-17T09:13:13.678Z,22.92
2023-06-17T09:15:42.037Z,22.97
2023-06-17T09:18:09.786Z,23.12
2023-06-17T09:20:37.447Z,22.99
2023-06-17T09:23:05.235Z,23.30
2023-06-17T09:25:36.544Z,23.39
2023-06-17T09:28:15.345Z,23.09
2023-06-17T09:30:54.387Z,22.94
2023-06-17T09:33:24.170Z,23.11
2023-06-17T09:36:05.483Z,23.01
2023-06-17T09:38:35.305Z,23.11
2023-06-17T09:41:05.611Z,23.01
2023-06-17T09:43:33.210Z,23.00
2023-06-17T09:46:04.920Z,23.23
2023-06-17T09:48:35.678Z,23.02
2023-06-17T09:51:11.055Z,22.94
2023-06-17T09:53:44.646Z,22.96
2023-06-17T09:56:17.836Z,22.80
2023-06-17T09:58:46.749Z,22.61
2023-06-17T10:01:15.179Z,22.58
2023-06-17T10:03:46.218Z,22.43
2023-06-17T10:06:20.717Z,22.23
2023-06-17T10:08:52.863Z,22.22
2023-06-17T10:11:22.651Z,22.16
2023-06-17T10:14:19.713Z,22.19
2023-06-17T10:16:50.961Z,22.58
2023-06-17T10:19:26.270Z,22.47
2023-06-17T10:22:01.662Z,22.28
2023-06-17T10:24:33.146Z,22.22
2023-06-17T10:27:11.602Z,22.24
2023-06-17T10:29:46.808Z,22.10
2023-06-17T10:32:26.925Z,22.35
2023-06-17T10:35:14.241Z,22.43
2023-06-17T10:37:50.539Z,22.63
2023-06-17T10:40:36.816Z,22.74
2023-06-17T10:43:27.587Z,22.75
2023-06-17T10:45:59.378Z,22.68
2023-06-17T10:48:35.361Z,22.83
2023-06-17T10:51:12.210Z,22.63
2023-06-17T10:53:52.001Z,22.55
2023-06-17T10:56:24.858Z,22.61
2023-06-17T10:58:52.963Z,22.76
2023-06-17T11:01:22.367Z,23.04
2023-06-17T11:04:01.394Z,23.04
2023-06-17T11:06:36.269Z,23.29
2023-06-17T11:09:06.961Z,22.99
2023-06-17T11:11:35.782Z,22.92
2023-06-17T11:14:04.261Z,22.84
2023-06-17T11:16:34.419Z,23.09
2023-06-17T11:19:07.300Z,23.39
2023-06-17T11:21:43.379Z,23.28
2023-06-17T11:24:14.537Z,23.35
2023-06-17T11:26:45.126Z,23.39
2023-06-17T11:29:14.208Z,23.51
2023-06-17T11:31:43.432Z,23.61
2023-06-17T11:35:27.598Z,23.74
2023-06-17T11:38:05.215Z,23.64
2023-06-17T11:40:36.957Z,23.68
2023-06-17T11:43:08.920Z,23.90
2023-06-17T11:45:38.652Z,23.45
2023-06-17T11:48:09.836Z,23.33
2023-06-17T11:50:42.029Z,23.34
2023-06-17T11:53:15.474Z,23.21
2023-06-17T11:55:47.242Z,23.17
2023-06-17T11:58:21.213Z,23.21
2023-06-17T12:00:49.860Z,23.22
2023-06-17T12:03:20.630Z,23.53
2023-06-17T12:06:11.919Z,23.41
2023-06-17T12:08:42.531Z,23.33
2023-06-17T12:11:46.081Z,23.45
2023-06-17T12:14:18.997Z,23.45
2023-06-17T12:16:49.554Z,23.38
2023-06-17T12:19:26.209Z,23.36
2023-06-17T12:21:54.708Z,23.25
2023-06-17T12:24:25.648Z,23.29
2023-06-17T12:26:59.825Z,23.22
2023-06-17T12:29:30.858Z,23.42
2023-06-17T12:32:01.959Z,23.21
2023-06-17T12:34:31.284Z,23.30
2023-06-17T12:37:13.637Z,23.36
2023-06-17T12:39:44.348Z,23.48
2023-06-17T12:42:15.086Z,23.17
2023-06-17T12:44:48.324Z,23.20
2023-06-17T12:47:24.956Z,23.40
2023-06-17T12:49:55.399Z,23.31
2023-06-17T12:52:27.845Z,23.42
2023-06-17T12:55:06.872Z,23.30
2023-06-17T12:57:35.776Z,23.37
2023-06-17T13:00:08.128Z,23.57
2023-06-17T13:02:39.074Z,23.99
2023-06-17T13:05:09.397Z,24.08
2023-06-17T13:07:41.927Z,23.77
2023-06-17T13:10:12.728Z,23.72
2023-06-17T13:12:42.846Z,24.06
2023-06-17T13:15:12.212Z,24.16
2023-06-17T13:17:40.753Z,24.16
2023-06-17T13:20:11.405Z,23.92
2023-06-17T13:22:40.159Z,23.64
2023-06-17T13:25:10.909Z,23.52
2023-06-17T13:27:41.962Z,23.50
2023-06-17T13:30:12.009Z,23.68
2023-06-17T13:32:40.863Z,23.81
2023-06-17T13:35:11.826Z,23.73
2023-06-17T13:37:41.215Z,23.71
2023-06-17T13:40:10.338Z,23.63
2023-06-17T13:42:38.803Z,23.45
2023-06-17T13:45:08.941Z,23.30
2023-06-17T13:47:37.210Z,23.43
2023-06-17T13:50:08.016Z,23.27
2023-06-17T13:52:36.397Z,23.15
2023-06-17T13:55:05.815Z,23.26
2023-06-17T13:57:33.952Z,23.06
2023-06-17T14:00:05.071Z,23.06
2023-06-17T14:02:37.440Z,23.13
2023-06-17T14:05:08.454Z,22.97
2023-06-17T14:07:36.994Z,22.93
2023-06-17T14:10:05.893Z,22.86
2023-06-17T14:12:34.479Z,22.77
2023-06-17T14:15:04.446Z,22.81
2023-06-17T14:17:33.106Z,23.00
2023-06-17T14:20:04.209Z,23.08
2023-06-17T14:22:33.956Z,23.03
2023-06-17T14:25:01.553Z,22.91
2023-06-17T14:27:43.789Z,23.04
2023-06-17T14:30:14.878Z,22.90
2023-06-17T14:32:46.088Z,23.02
2023-06-17T14:35:17.900Z,22.89
2023-06-17T14:37:49.744Z,22.80
2023-06-17T14:40:19.202Z,23.11
2023-06-17T14:42:48.776Z,22.89
2023-06-17T14:45:18.108Z,22.98
2023-06-17T14:47:46.827Z,22.88
2023-06-17T14:50:18.135Z,23.03
2023-06-17T14:52:51.497Z,22.96
2023-06-17T14:55:20.788Z,23.08
2023-06-17T14:57:51.471Z,22.87
2023-06-17T15:00:22.500Z,22.71
2023-06-17T15:02:57.968Z,22.57
2023-06-17T15:05:28.496Z,22.55
2023-06-17T15:07:57.563Z,22.58
2023-06-17T15:10:25.935Z,22.64
2023-06-17T15:12:54.080Z,22.66
2023-06-17T15:15:22.386Z,22.49
2023-06-17T15:17:50.668Z,22.57
2023-06-17T15:20:20.911Z,22.53
2023-06-17T15:22:49.353Z,22.59
2023-06-17T15:25:18.662Z,22.80
2023-06-17T15:27:46.586Z,23.10
2023-06-17T15:30:14.588Z,22.84
2023-06-17T15:32:42.939Z,22.53
2023-06-17T15:35:12.436Z,22.72
2023-06-17T15:37:41.858Z,22.55
2023-06-17T15:40:14.389Z,22.43
2023-06-17T15:42:45.139Z,22.51
2023-06-17T15:45:13.480Z,22.65
2023-06-17T15:47:42.519Z,22.69
2023-06-17T15:50:11.454Z,22.52
2023-06-17T15:52:41.083Z,22.53
2023-06-17T15:55:09.470Z,22.52
2023-06-17T15:57:39.120Z,22.46
2023-06-17T16:00:09.445Z,22.46
2023-06-17T16:02:43.415Z,22.47
2023-06-17T16:05:14.841Z,22.27
2023-06-17T16:07:43.022Z,22.16
2023-06-17T16:10:11.642Z,22.24
2023-06-17T16:12:39.775Z,22.16
2023-06-17T16:15:09.665Z,22.03
2023-06-17T16:17:39.501Z,22.08
2023-06-17T16:20:09.382Z,22.09
2023-06-17T16:22:38.737Z,22.38
2023-06-17T16:25:09.888Z,22.08
2023-06-17T16:27:41.702Z,22.26
2023-06-17T16:30:13.535Z,22.46
2023-06-17T16:32:41.599Z,22.25
2023-06-17T16:35:10.185Z,22.06
2023-06-17T16:37:38.002Z,22.15
2023-06-17T16:40:06.970Z,22.09
2023-06-17T16:42:37.311Z,22.25
2023-06-17T16:45:06.986Z,22.83
2023-06-17T16:47:34.883Z,22.20
2023-06-17T16:50:03.101Z,21.93
2023-06-17T16:52:31.267Z,21.91
2023-06-17T16:55:02.396Z,22.24
2023-06-17T16:57:33.517Z,21.95
2023-06-17T17:00:02.769Z,21.85
2023-06-17T17:02:33.879Z,21.80
2023-06-17T17:05:03.715Z,21.72
2023-06-17T17:07:32.816Z,21.62
2023-06-17T17:10:01.589Z,21.59
2023-06-17T17:12:30.465Z,21.58
2023-06-17T17:14:58.901Z,21.58
2023-06-17T17:17:41.339Z,21.60
2023-06-17T17:20:32.610Z,21.67
2023-06-17T17:23:04.748Z,21.69
2023-06-17T17:25:43.655Z,21.73
2023-06-17T17:28:24.060Z,21.78
2023-06-17T17:30:55.375Z,21.72
2023-06-17T17:33:27.244Z,21.74
2023-06-17T17:35:58.526Z,21.67
2023-06-17T17:38:27.851Z,21.67
2023-06-17T17:40:57.059Z,21.69
2023-06-17T17:43:30.966Z,21.67
2023-06-17T17:46:03.491Z,21.70
2023-06-17T17:48:33.660Z,21.59
2023-06-17T17:51:05.082Z,21.47
2023-06-17T17:53:35.065Z,21.57
2023-06-17T17:56:05.940Z,21.52
2023-06-17T17:58:39.583Z,21.42
2023-06-17T18:01:11.069Z,21.44
2023-06-17T18:03:42.214Z,21.34
2023-06-17T18:06:12.222Z,21.30
2023-06-17T18:08:44.339Z,21.27
2023-06-17T18:11:14.582Z,21.31
2023-06-17T18:13:44.456Z,21.34
2023-06-17T18:16:12.965Z,21.36
2023-06-17T18:18:49.298Z,21.37
2023-06-17T18:21:18.162Z,21.44
2023-06-17T18:23:48.286Z,21.46
2023-06-17T18:26:18.005Z,21.57
2023-06-17T18:28:47.901Z,21.49
2023-06-17T18:31:17.270Z,21.48
2023-06-17T18:33:49.738Z,21.46
2023-06-17T18:36:19.108Z,21.30
2023-06-17T18:38:51.280Z,21.31
2023-06-17T18:41:21.251Z,21.20
2023-06-17T18:43:53.016Z,21.47
2023-06-17T18:46:21.604Z,21.54
2023-06-17T18:48:51.766Z,21.42
2023-06-17T18:51:20.906Z,21.38
2023-06-17T18:53:52.074Z,21.52
2023-06-17T18:56:26.305Z,21.77
2023-06-17T18:58:57.630Z,21.51
2023-06-17T19:01:32.982Z,21.46
2023-06-17T19:04:04.664Z,21.21
2023-06-17T19:06:32.863Z,21.08
2023-06-17T19:09:07.458Z,21.05
2023-06-17T19:11:36.680Z,20.92
2023-06-17T19:14:07.171Z,20.90
2023-06-17T19:16:37.340Z,20.89
2023-06-17T19:19:11.625Z,20.90
2023-06-17T19:21:40.385Z,20.91
2023-06-17T19:24:09.382Z,20.93
2023-06-17T19:26:38.616Z,20.96
2023-06-17T19:29:07.916Z,20.93
2023-06-17T19:31:36.551Z,20.84
2023-06-17T19:34:10.858Z,20.89
2023-06-17T19:36:40.542Z,20.86
2023-06-17T19:39:10.756Z,21.00
2023-06-17T19:41:41.604Z,21.11
2023-06-17T19:44:11.284Z,21.01
2023-06-17T19:46:41.788Z,21.03
2023-06-17T19:49:11.292Z,21.02
2023-06-17T19:51:40.639Z,20.98
2023-06-17T19:54:12.089Z,20.87
2023-06-17T19:56:41.644Z,20.89
2023-06-17T19:59:10.638Z,20.91
2023-06-17T20:01:40.943Z,21.19
2023-06-17T20:04:10.504Z,20.80
2023-06-17T20:06:38.652Z,20.64
2023-06-17T20:09:09.673Z,20.62
2023-06-17T20:11:38.836Z,20.67
2023-06-17T20:14:08.955Z,20.60
2023-06-17T20:16:42.655Z,20.80
2023-06-17T20:19:11.688Z,20.76
2023-06-17T20:21:47.261Z,20.80
2023-06-17T20:24:19.053Z,20.68
2023-06-17T20:26:51.956Z,20.95
2023-06-17T20:29:21.960Z,20.64
2023-06-17T20:31:50.659Z,20.45
2023-06-17T20:34:25.224Z,20.24
2023-06-17T20:36:54.638Z,20.31
2023-06-17T20:39:24.559Z,20.40
2023-06-17T20:41:53.380Z,20.27
2023-06-17T20:44:25.588Z,20.16
2023-06-17T20:47:02.581Z,20.12
2023-06-17T20:49:32.033Z,20.05
2023-06-17T20:52:03.094Z,20.11
2023-06-17T20:54:35.006Z,20.07
2023-06-17T20:57:07.910Z,19.78
2023-06-17T20:59:40.397Z,19.73
2023-06-17T21:02:11.423Z,19.62
2023-06-17T21:04:40.928Z,19.55
2023-06-17T21:07:18.704Z,19.87
2023-06-17T21:09:48.490Z,19.76
2023-06-17T21:12:20.182Z,19.57
2023-06-17T21:14:54.220Z,19.55
2023-06-17T21:17:26.214Z,19.55
2023-06-17T21:19:57.536Z,19.66
2023-06-17T21:22:26.190Z,19.51
2023-06-17T21:24:54.525Z,19.47
2023-06-17T21:27:25.787Z,19.57
2023-06-17T21:29:54.167Z,19.64
2023-06-17T21:32:23.650Z,19.63
2023-06-17T21:34:52.496Z,19.76
2023-06-17T21:37:20.970Z,19.76
2023-06-17T21:39:51.155Z,19.87
2023-06-17T21:42:19.506Z,19.69
2023-06-17T21:44:47.862Z,19.64
2023-06-17T21:47:17.321Z,19.56
2023-06-17T21:49:45.410Z,19.99
2023-06-17T21:52:13.559Z,19.98
2023-06-17T21:54:41.312Z,19.78
2023-06-17T21:57:12.406Z,19.83
2023-06-17T21:59:41.734Z,19.83
2023-06-17T22:02:09.713Z,19.62
2023-06-17T22:04:38.184Z,19.52
2023-06-17T22:07:07.235Z,19.35
2023-06-17T22:09:35.193Z,19.35
2023-06-17T22:12:03.425Z,19.35
2023-06-17T22:14:31.675Z,19.52
2023-06-17T22:17:01.592Z,19.29
2023-06-17T22:19:30.228Z,19.38
2023-06-17T22:21:58.222Z,19.21
2023-06-17T22:24:25.794Z,19.20
2023-06-17T22:26:54.450Z,19.38
2023-06-17T22:29:21.903Z,19.10
2023-06-17T22:31:49.435Z,19.24
2023-06-17T22:34:17.475Z,19.19
2023-06-17T22:36:47.184Z,19.16
2023-06-17T22:39:15.624Z,19.27
2023-06-17T22:41:44.469Z,19.04
2023-06-17T22:44:12.089Z,19.08
2023-06-17T22:46:40.136Z,19.07
2023-06-17T22:49:07.749Z,18.91
2023-06-17T22:51:36.841Z,18.92
2023-06-17T22:54:06.805Z,18.81
2023-06-17T22:56:34.430Z,19.00
2023-06-17T22:59:01.924Z,18.92
2023-06-17T23:01:29.506Z,18.91
2023-06-17T23:03:57.507Z,18.93
2023-06-17T23:06:26.884Z,18.98
2023-06-17T23:08:56.020Z,18.95
2023-06-17T23:11:26.323Z,18.58
2023-06-17T23:14:01.532Z,18.80
2023-06-17T23:16:29.782Z,18.89
2023-06-17T23:18:57.304Z,18.71
2023-06-17T23:21:27.140Z,18.81
2023-06-17T23:23:55.511Z,19.03
2023-06-17T23:26:28.598Z,18.72
2023-06-17T23:28:59.156Z,18.68
2023-06-17T23:31:27.448Z,18.81
2023-06-17T23:33:55.289Z,18.63
2023-06-17T23:36:24.262Z,18.63
2023-06-17T23:38:53.094Z,18.65
2023-06-17T23:41:20.834Z,18.85
2023-06-17T23:43:48.476Z,18.90
2023-06-17T23:46:17.325Z,18.93
2023-06-17T23:48:45.512Z,18.79
2023-06-17T23:51:13.062Z,18.65
2023-06-17T23:53:40.680Z,18.62
2023-06-17T23:56:08.261Z,18.72
2023-06-17T23:58:36.780Z,18.83
